sensor_id;sensor_type;location;lat;lon;timestamp;temperature;humidity
65369;HTU21D;51970;53.484;49.488;2023-02-15T00:00:26;-7.62;74.08
65369;HTU21D;51970;53.484;49.488;2023-02-15T00:02:52;-7.74;73.73
65369;HTU21D;51970;53.484;49.488;2023-02-15T00:05:18;-7.86;73.57
65369;HTU21D;51970;53.484;49.488;2023-02-15T00:07:44;-7.93;73.84
65369;HTU21D;51970;53.484;49.488;2023-02-15T00:10:10;-7.93;73.77
65369;HTU21D;51970;53.484;49.488;2023-02-15T00:12:37;-7.80;73.83
65369;HTU21D;51970;53.484;49.488;2023-02-15T00:15:04;-7.81;73.10
65369;HTU21D;51970;53.484;49.488;2023-02-15T00:17:30;-7.83;73.38
65369;HTU21D;51970;53.484;49.488;2023-02-15T00:19:56;-7.91;73.51
65369;HTU21D;51970;53.484;49.488;2023-02-15T00:22:22;-7.87;74.02
65369;HTU21D;51970;53.484;49.488;2023-02-15T00:24:47;-7.80;73.51
65369;HTU21D;51970;53.484;49.488;2023-02-15T00:27:14;-7.86;73.35
65369;HTU21D;51970;53.484;49.488;2023-02-15T00:29:40;-7.90;73.57
65369;HTU21D;51970;53.484;49.488;2023-02-15T00:32:06;-7.75;73.92
65369;HTU21D;51970;53.484;49.488;2023-02-15T00:34:32;-7.65;72.64
65369;HTU21D;51970;53.484;49.488;2023-02-15T00:36:58;-7.79;72.26
65369;HTU21D;51970;53.484;49.488;2023-02-15T00:39:24;-7.87;72.65
65369;HTU21D;51970;53.484;49.488;2023-02-15T00:41:52;-7.81;73.07
65369;HTU21D;51970;53.484;49.488;2023-02-15T00:44:18;-7.86;73.25
65369;HTU21D;51970;53.484;49.488;2023-02-15T00:46:44;-5.84;73.41
65369;HTU21D;51970;53.484;49.488;2023-02-15T00:49:10;-7.71;72.99
65369;HTU21D;51970;53.484;49.488;2023-02-15T00:51:36;-7.75;72.48
65369;HTU21D;51970;53.484;49.488;2023-02-15T00:54:03;-7.82;72.75
65369;HTU21D;51970;53.484;49.488;2023-02-15T00:56:29;-7.63;73.12
65369;HTU21D;51970;53.484;49.488;2023-02-15T00:58:55;-7.61;72.63
65369;HTU21D;51970;53.484;49.488;2023-02-15T01:01:21;-7.51;72.25
65369;HTU21D;51970;53.484;49.488;2023-02-15T01:03:47;-7.59;71.64
65369;HTU21D;51970;53.484;49.488;2023-02-15T01:06:14;-7.71;71.04
65369;HTU21D;51970;53.484;49.488;2023-02-15T01:08:41;-7.81;71.42
65369;HTU21D;51970;53.484;49.488;2023-02-15T01:11:13;-7.84;71.77
65369;HTU21D;51970;53.484;49.488;2023-02-15T01:13:40;-7.78;71.73
65369;HTU21D;51970;53.484;49.488;2023-02-15T01:16:07;-7.70;71.70
65369;HTU21D;51970;53.484;49.488;2023-02-15T01:18:33;-7.70;71.46
65369;HTU21D;51970;53.484;49.488;2023-02-15T01:21:00;-7.70;71.62
65369;HTU21D;51970;53.484;49.488;2023-02-15T01:23:33;-7.72;71.55
65369;HTU21D;51970;53.484;49.488;2023-02-15T01:26:03;-7.74;71.13
65369;HTU21D;51970;53.484;49.488;2023-02-15T01:28:29;-7.89;71.15
65369;HTU21D;51970;53.484;49.488;2023-02-15T01:30:56;-7.91;71.56
65369;HTU21D;51970;53.484;49.488;2023-02-15T01:33:22;-7.82;72.00
65369;HTU21D;51970;53.484;49.488;2023-02-15T01:35:48;-7.81;71.42
65369;HTU21D;51970;53.484;49.488;2023-02-15T01:38:14;-7.86;71.82
65369;HTU21D;51970;53.484;49.488;2023-02-15T01:40:40;-7.85;72.25
65369;HTU21D;51970;53.484;49.488;2023-02-15T01:43:11;-7.80;72.22
65369;HTU21D;51970;53.484;49.488;2023-02-15T01:45:38;-7.98;71.93
65369;HTU21D;51970;53.484;49.488;2023-02-15T01:50:41;-8.12;72.32
65369;HTU21D;51970;53.484;49.488;2023-02-15T01:58:26;-8.19;72.50
65369;HTU21D;51970;53.484;49.488;2023-02-15T02:00:54;-8.11;72.84
65369;HTU21D;51970;53.484;49.488;2023-02-15T02:03:51;-8.03;72.24
65369;HTU21D;51970;53.484;49.488;2023-02-15T02:06:13;-8.07;72.24
65369;HTU21D;51970;53.484;49.488;2023-02-15T02:08:42;-8.01;72.54
65369;HTU21D;51970;53.484;49.488;2023-02-15T02:11:13;-7.86;72.68
65369;HTU21D;51970;53.484;49.488;2023-02-15T02:13:43;-8.09;71.93
65369;HTU21D;51970;53.484;49.488;2023-02-15T02:16:32;-8.13;72.47
65369;HTU21D;51970;53.484;49.488;2023-02-15T02:24:50;-8.13;71.67
65369;HTU21D;51970;53.484;49.488;2023-02-15T02:38:27;-8.16;72.16
65369;HTU21D;51970;53.484;49.488;2023-02-15T02:43:54;-8.21;72.48
65369;HTU21D;51970;53.484;49.488;2023-02-15T02:46:32;-8.11;72.70
65369;HTU21D;51970;53.484;49.488;2023-02-15T02:49:01;-8.09;72.60
65369;HTU21D;51970;53.484;49.488;2023-02-15T02:51:27;-8.16;72.25
65369;HTU21D;51970;53.484;49.488;2023-02-15T02:53:55;-8.29;72.73
65369;HTU21D;51970;53.484;49.488;2023-02-15T02:56:45;-8.38;72.96
65369;HTU21D;51970;53.484;49.488;2023-02-15T02:59:27;-8.44;73.61
65369;HTU21D;51970;53.484;49.488;2023-02-15T03:04:28;-8.29;72.87
65369;HTU21D;51970;53.484;49.488;2023-02-15T03:07:01;-8.28;72.95
65369;HTU21D;51970;53.484;49.488;2023-02-15T03:09:39;-8.33;72.78
65369;HTU21D;51970;53.484;49.488;2023-02-15T03:12:21;-8.43;72.96
65369;HTU21D;51970;53.484;49.488;2023-02-15T03:14:51;-8.40;73.06
65369;HTU21D;51970;53.484;49.488;2023-02-15T03:17:20;-8.41;73.15
65369;HTU21D;51970;53.484;49.488;2023-02-15T03:19:49;-8.35;73.03
65369;HTU21D;51970;53.484;49.488;2023-02-15T03:22:26;-6.75;73.50
65369;HTU21D;51970;53.484;49.488;2023-02-15T03:25:02;-7.13;73.18
65369;HTU21D;51970;53.484;49.488;2023-02-15T03:27:35;-8.29;73.05
65369;HTU21D;51970;53.484;49.488;2023-02-15T03:30:03;-8.23;73.12
65369;HTU21D;51970;53.484;49.488;2023-02-15T03:32:33;-8.16;73.15
65369;HTU21D;51970;53.484;49.488;2023-02-15T03:35:00;-8.19;73.38
65369;HTU21D;51970;53.484;49.488;2023-02-15T03:37:40;-8.23;73.00
65369;HTU21D;51970;53.484;49.488;2023-02-15T03:40:24;-8.27;73.00
65369;HTU21D;51970;53.484;49.488;2023-02-15T03:46:08;-8.13;72.69
65369;HTU21D;51970;53.484;49.488;2023-02-15T03:48:40;-8.22;72.85
65369;HTU21D;51970;53.484;49.488;2023-02-15T03:51:11;-8.07;72.80
65369;HTU21D;51970;53.484;49.488;2023-02-15T03:53:57;-8.01;72.70
65369;HTU21D;51970;53.484;49.488;2023-02-15T03:56:24;-7.82;73.06
65369;HTU21D;51970;53.484;49.488;2023-02-15T03:58:51;-8.11;72.86
65369;HTU21D;51970;53.484;49.488;2023-02-15T04:01:39;-8.14;73.25
65369;HTU21D;51970;53.484;49.488;2023-02-15T04:07:10;-8.09;73.54
65369;HTU21D;51970;53.484;49.488;2023-02-15T04:09:36;-8.19;73.84
65369;HTU21D;51970;53.484;49.488;2023-02-15T04:12:21;-8.25;74.01
65369;HTU21D;51970;53.484;49.488;2023-02-15T04:14:49;-8.24;74.15
65369;HTU21D;51970;53.484;49.488;2023-02-15T04:17:35;-8.16;74.29
65369;HTU21D;51970;53.484;49.488;2023-02-15T04:20:02;-6.52;74.12
65369;HTU21D;51970;53.484;49.488;2023-02-15T04:22:46;-8.18;74.09
65369;HTU21D;51970;53.484;49.488;2023-02-15T04:25:31;-8.19;74.27
65369;HTU21D;51970;53.484;49.488;2023-02-15T04:27:57;-7.98;74.22
65369;HTU21D;51970;53.484;49.488;2023-02-15T04:30:24;-8.23;74.35
65369;HTU21D;51970;53.484;49.488;2023-02-15T04:32:51;-7.97;74.55
65369;HTU21D;51970;53.484;49.488;2023-02-15T04:35:17;-8.15;74.06
65369;HTU21D;51970;53.484;49.488;2023-02-15T04:37:52;-7.63;74.16
65369;HTU21D;51970;53.484;49.488;2023-02-15T04:40:28;-8.18;74.69
65369;HTU21D;51970;53.484;49.488;2023-02-15T04:43:01;-8.11;74.44
65369;HTU21D;51970;53.484;49.488;2023-02-15T04:45:30;-8.07;73.84
65369;HTU21D;51970;53.484;49.488;2023-02-15T04:47:56;-8.11;74.25
65369;HTU21D;51970;53.484;49.488;2023-02-15T04:50:43;-8.10;73.66
65369;HTU21D;51970;53.484;49.488;2023-02-15T04:53:25;-8.21;74.25
65369;HTU21D;51970;53.484;49.488;2023-02-15T04:55:54;-7.84;73.83
65369;HTU21D;51970;53.484;49.488;2023-02-15T04:58:38;-7.95;74.45
65369;HTU21D;51970;53.484;49.488;2023-02-15T05:01:57;-7.75;73.49
65369;HTU21D;51970;53.484;49.488;2023-02-15T05:04:46;-7.92;73.56
65369;HTU21D;51970;53.484;49.488;2023-02-15T05:08:02;-7.01;73.54
65369;HTU21D;51970;53.484;49.488;2023-02-15T05:10:32;-6.66;73.34
65369;HTU21D;51970;53.484;49.488;2023-02-15T05:13:45;-7.86;73.09
65369;HTU21D;51970;53.484;49.488;2023-02-15T05:16:12;-7.78;73.04
65369;HTU21D;51970;53.484;49.488;2023-02-15T05:19:00;-7.08;73.25
65369;HTU21D;51970;53.484;49.488;2023-02-15T05:21:31;-7.05;73.05
65369;HTU21D;51970;53.484;49.488;2023-02-15T05:24:05;-6.27;72.50
65369;HTU21D;51970;53.484;49.488;2023-02-15T05:27:45;-7.78;72.67
65369;HTU21D;51970;53.484;49.488;2023-02-15T05:31:16;-7.71;72.32
65369;HTU21D;51970;53.484;49.488;2023-02-15T05:34:42;-5.64;72.21
65369;HTU21D;51970;53.484;49.488;2023-02-15T05:37:54;-7.49;71.62
65369;HTU21D;51970;53.484;49.488;2023-02-15T05:40:31;-7.51;70.90
65369;HTU21D;51970;53.484;49.488;2023-02-15T05:43:01;-7.13;71.36
65369;HTU21D;51970;53.484;49.488;2023-02-15T05:46:12;-6.42;70.74
65369;HTU21D;51970;53.484;49.488;2023-02-15T05:48:39;-7.48;71.00
65369;HTU21D;51970;53.484;49.488;2023-02-15T05:51:11;-6.42;70.65
65369;HTU21D;51970;53.484;49.488;2023-02-15T05:53:48;-7.32;70.28
65369;HTU21D;51970;53.484;49.488;2023-02-15T05:57:20;-7.29;70.19
65369;HTU21D;51970;53.484;49.488;2023-02-15T06:00:08;-7.29;70.03
65369;HTU21D;51970;53.484;49.488;2023-02-15T06:02:40;-7.12;69.70
65369;HTU21D;51970;53.484;49.488;2023-02-15T06:05:16;-6.00;69.58
65369;HTU21D;51970;53.484;49.488;2023-02-15T06:08:07;-5.81;69.10
65369;HTU21D;51970;53.484;49.488;2023-02-15T06:13:46;-6.83;69.23
65369;HTU21D;51970;53.484;49.488;2023-02-15T06:16:20;-5.83;68.46
65369;HTU21D;51970;53.484;49.488;2023-02-15T06:19:00;-6.50;68.20
65369;HTU21D;51970;53.484;49.488;2023-02-15T06:21:50;-7.04;68.79
65369;HTU21D;51970;53.484;49.488;2023-02-15T06:24:39;-5.12;68.30
65369;HTU21D;51970;53.484;49.488;2023-02-15T06:27:30;-6.74;68.07
65369;HTU21D;51970;53.484;49.488;2023-02-15T06:30:04;-6.42;67.59
65369;HTU21D;51970;53.484;49.488;2023-02-15T06:33:03;-5.87;66.84
65369;HTU21D;51970;53.484;49.488;2023-02-15T06:35:43;-6.45;66.70
65369;HTU21D;51970;53.484;49.488;2023-02-15T06:38:23;-6.48;67.05
65369;HTU21D;51970;53.484;49.488;2023-02-15T06:41:26;-6.36;67.17
65369;HTU21D;51970;53.484;49.488;2023-02-15T06:44:20;-6.08;67.97
65369;HTU21D;51970;53.484;49.488;2023-02-15T06:46:56;-6.44;68.05
65369;HTU21D;51970;53.484;49.488;2023-02-15T06:49:33;-4.59;67.90
65369;HTU21D;51970;53.484;49.488;2023-02-15T06:52:31;-5.83;67.17
65369;HTU21D;51970;53.484;49.488;2023-02-15T06:56:13;-5.44;66.81
65369;HTU21D;51970;53.484;49.488;2023-02-15T06:58:51;-6.41;66.95
65369;HTU21D;51970;53.484;49.488;2023-02-15T07:01:22;-6.30;67.22
65369;HTU21D;51970;53.484;49.488;2023-02-15T07:04:21;-6.23;66.91
65369;HTU21D;51970;53.484;49.488;2023-02-15T07:07:52;-6.31;66.82
65369;HTU21D;51970;53.484;49.488;2023-02-15T07:11:18;-5.89;66.33
65369;HTU21D;51970;53.484;49.488;2023-02-15T07:14:20;-6.17;66.47
65369;HTU21D;51970;53.484;49.488;2023-02-15T07:17:23;-5.40;65.89
65369;HTU21D;51970;53.484;49.488;2023-02-15T07:20:45;-6.41;66.24
65369;HTU21D;51970;53.484;49.488;2023-02-15T07:23:20;-6.36;66.18
65369;HTU21D;51970;53.484;49.488;2023-02-15T07:26:08;-6.38;66.53
65369;HTU21D;51970;53.484;49.488;2023-02-15T07:28:35;-6.21;66.28
65369;HTU21D;51970;53.484;49.488;2023-02-15T07:31:03;-6.04;65.96
65369;HTU21D;51970;53.484;49.488;2023-02-15T07:33:32;-5.84;65.14
65369;HTU21D;51970;53.484;49.488;2023-02-15T07:36:01;-5.64;65.03
65369;HTU21D;51970;53.484;49.488;2023-02-15T07:38:31;-5.58;64.63
65369;HTU21D;51970;53.484;49.488;2023-02-15T07:41:02;-5.31;63.91
65369;HTU21D;51970;53.484;49.488;2023-02-15T07:43:29;-5.20;62.98
65369;HTU21D;51970;53.484;49.488;2023-02-15T07:46:15;-5.37;62.87
65369;HTU21D;51970;53.484;49.488;2023-02-15T07:48:43;-5.63;63.56
65369;HTU21D;51970;53.484;49.488;2023-02-15T07:51:11;-5.52;64.57
65369;HTU21D;51970;53.484;49.488;2023-02-15T07:53:41;-5.47;64.00
65369;HTU21D;51970;53.484;49.488;2023-02-15T07:56:12;-5.41;63.36
65369;HTU21D;51970;53.484;49.488;2023-02-15T07:58:47;-5.32;63.34
65369;HTU21D;51970;53.484;49.488;2023-02-15T08:01:19;-5.30;62.68
65369;HTU21D;51970;53.484;49.488;2023-02-15T08:03:48;-5.01;63.52
65369;HTU21D;51970;53.484;49.488;2023-02-15T08:06:18;-4.79;61.80
65369;HTU21D;51970;53.484;49.488;2023-02-15T08:08:44;-4.89;62.14
65369;HTU21D;51970;53.484;49.488;2023-02-15T08:11:22;-5.03;62.50
65369;HTU21D;51970;53.484;49.488;2023-02-15T08:14:00;-5.27;62.66
65369;HTU21D;51970;53.484;49.488;2023-02-15T08:16:36;-5.46;64.44
65369;HTU21D;51970;53.484;49.488;2023-02-15T08:19:08;-5.14;64.49
65369;HTU21D;51970;53.484;49.488;2023-02-15T08:21:37;-5.13;64.89
65369;HTU21D;51970;53.484;49.488;2023-02-15T08:24:04;-5.13;64.04
65369;HTU21D;51970;53.484;49.488;2023-02-15T08:26:32;-5.11;64.14
65369;HTU21D;51970;53.484;49.488;2023-02-15T08:28:59;-5.23;64.66
65369;HTU21D;51970;53.484;49.488;2023-02-15T08:31:26;-5.09;64.17
65369;HTU21D;51970;53.484;49.488;2023-02-15T08:33:54;-4.97;63.95
65369;HTU21D;51970;53.484;49.488;2023-02-15T08:36:23;-4.81;63.56
65369;HTU21D;51970;53.484;49.488;2023-02-15T08:38:50;-4.56;62.87
65369;HTU21D;51970;53.484;49.488;2023-02-15T08:41:27;-4.39;63.08
65369;HTU21D;51970;53.484;49.488;2023-02-15T08:43:58;-4.30;61.75
65369;HTU21D;51970;53.484;49.488;2023-02-15T08:46:27;-4.49;61.74
65369;HTU21D;51970;53.484;49.488;2023-02-15T08:48:56;-4.29;63.09
65369;HTU21D;51970;53.484;49.488;2023-02-15T08:51:25;-4.39;62.72
65369;HTU21D;51970;53.484;49.488;2023-02-15T08:53:55;-4.51;62.24
65369;HTU21D;51970;53.484;49.488;2023-02-15T08:56:24;-4.58;62.44
65369;HTU21D;51970;53.484;49.488;2023-02-15T08:58:50;-4.26;62.50
65369;HTU21D;51970;53.484;49.488;2023-02-15T09:01:22;-4.04;61.88
65369;HTU21D;51970;53.484;49.488;2023-02-15T09:03:51;-4.27;60.83
65369;HTU21D;51970;53.484;49.488;2023-02-15T09:06:24;-4.30;61.74
65369;HTU21D;51970;53.484;49.488;2023-02-15T09:09:01;-4.38;62.00
65369;HTU21D;51970;53.484;49.488;2023-02-15T09:11:29;-4.45;62.68
65369;HTU21D;51970;53.484;49.488;2023-02-15T09:14:00;-4.48;61.77
65369;HTU21D;51970;53.484;49.488;2023-02-15T09:16:29;-4.69;62.68
65369;HTU21D;51970;53.484;49.488;2023-02-15T09:18:56;-4.48;62.24
65369;HTU21D;51970;53.484;49.488;2023-02-15T09:21:28;-4.59;62.20
65369;HTU21D;51970;53.484;49.488;2023-02-15T09:23:59;-4.43;62.50
65369;HTU21D;51970;53.484;49.488;2023-02-15T09:26:29;-4.53;61.58
65369;HTU21D;51970;53.484;49.488;2023-02-15T09:28:58;-4.69;62.89
65369;HTU21D;51970;53.484;49.488;2023-02-15T09:31:27;-4.63;62.33
65369;HTU21D;51970;53.484;49.488;2023-02-15T09:33:54;-4.56;62.89
65369;HTU21D;51970;53.484;49.488;2023-02-15T09:36:25;-4.61;61.89
65369;HTU21D;51970;53.484;49.488;2023-02-15T09:39:13;-4.46;62.05
65369;HTU21D;51970;53.484;49.488;2023-02-15T09:55:39;-4.28;61.60
65369;HTU21D;51970;53.484;49.488;2023-02-15T09:58:58;-4.09;61.21
65369;HTU21D;51970;53.484;49.488;2023-02-15T10:10:19;-4.53;61.10
65369;HTU21D;51970;53.484;49.488;2023-02-15T10:13:38;-4.61;61.67
65369;HTU21D;51970;53.484;49.488;2023-02-15T10:20:49;-4.31;60.99
65369;HTU21D;51970;53.484;49.488;2023-02-15T10:24:08;-2.56;60.52
65369;HTU21D;51970;53.484;49.488;2023-02-15T10:27:27;-4.05;60.70
65369;HTU21D;51970;53.484;49.488;2023-02-15T10:30:51;-3.94;60.12
65369;HTU21D;51970;53.484;49.488;2023-02-15T10:34:12;-3.69;59.30
65369;HTU21D;51970;53.484;49.488;2023-02-15T10:38:08;-3.71;59.61
65369;HTU21D;51970;53.484;49.488;2023-02-15T10:50:47;-4.05;59.93
65369;HTU21D;51970;53.484;49.488;2023-02-15T10:56:43;-4.22;60.09
65369;HTU21D;51970;53.484;49.488;2023-02-15T11:02:39;-3.98;60.42
65369;HTU21D;51970;53.484;49.488;2023-02-15T11:06:24;-4.09;61.54
65369;HTU21D;51970;53.484;49.488;2023-02-15T11:09:24;-3.98;60.98
65369;HTU21D;51970;53.484;49.488;2023-02-15T11:12:02;-3.92;60.97
65369;HTU21D;51970;53.484;49.488;2023-02-15T11:15:46;-3.92;60.64
65369;HTU21D;51970;53.484;49.488;2023-02-15T11:22:10;-4.16;62.09
65369;HTU21D;51970;53.484;49.488;2023-02-15T11:24:44;-4.20;62.50
65369;HTU21D;51970;53.484;49.488;2023-02-15T11:28:24;-4.29;62.78
65369;HTU21D;51970;53.484;49.488;2023-02-15T11:32:33;-4.45;63.55
65369;HTU21D;51970;53.484;49.488;2023-02-15T11:36:04;-4.57;64.11
65369;HTU21D;51970;53.484;49.488;2023-02-15T11:39:26;-4.43;62.95
65369;HTU21D;51970;53.484;49.488;2023-02-15T11:41:59;-4.49;63.98
65369;HTU21D;51970;53.484;49.488;2023-02-15T11:44:34;-4.25;62.98
65369;HTU21D;51970;53.484;49.488;2023-02-15T11:47:11;-4.30;63.15
65369;HTU21D;51970;53.484;49.488;2023-02-15T11:49:38;-4.44;63.34
65369;HTU21D;51970;53.484;49.488;2023-02-15T11:52:12;-4.24;63.50
65369;HTU21D;51970;53.484;49.488;2023-02-15T11:54:48;-4.30;63.66
65369;HTU21D;51970;53.484;49.488;2023-02-15T11:57:40;-4.32;62.08
65369;HTU21D;51970;53.484;49.488;2023-02-15T12:00:34;-4.58;62.20
65369;HTU21D;51970;53.484;49.488;2023-02-15T12:03:19;-4.72;63.11
65369;HTU21D;51970;53.484;49.488;2023-02-15T12:05:51;-4.54;63.74
65369;HTU21D;51970;53.484;49.488;2023-02-15T12:08:20;-4.29;62.62
65369;HTU21D;51970;53.484;49.488;2023-02-15T12:11:02;-4.44;62.11
65369;HTU21D;51970;53.484;49.488;2023-02-15T12:13:29;-4.72;62.47
65369;HTU21D;51970;53.484;49.488;2023-02-15T12:15:59;-4.72;62.60
65369;HTU21D;51970;53.484;49.488;2023-02-15T12:18:45;-4.82;64.69
65369;HTU21D;51970;53.484;49.488;2023-02-15T12:21:39;-4.91;65.72
65369;HTU21D;51970;53.484;49.488;2023-02-15T12:27:02;-5.02;64.25
65369;HTU21D;51970;53.484;49.488;2023-02-15T12:29:49;-5.09;64.31
65369;HTU21D;51970;53.484;49.488;2023-02-15T12:32:22;-5.13;64.57
65369;HTU21D;51970;53.484;49.488;2023-02-15T12:34:55;-5.24;64.73
65369;HTU21D;51970;53.484;49.488;2023-02-15T12:37:30;-5.24;64.77
65369;HTU21D;51970;53.484;49.488;2023-02-15T12:40:18;-5.40;64.88
65369;HTU21D;51970;53.484;49.488;2023-02-15T12:42:48;-5.48;65.42
65369;HTU21D;51970;53.484;49.488;2023-02-15T12:45:29;-5.58;65.75
65369;HTU21D;51970;53.484;49.488;2023-02-15T12:48:18;-5.65;66.19
65369;HTU21D;51970;53.484;49.488;2023-02-15T12:50:49;-5.57;66.40
65369;HTU21D;51970;53.484;49.488;2023-02-15T12:53:22;-5.70;66.13
65369;HTU21D;51970;53.484;49.488;2023-02-15T12:55:58;-4.53;66.53
65369;HTU21D;51970;53.484;49.488;2023-02-15T12:58:26;-5.84;67.10
65369;HTU21D;51970;53.484;49.488;2023-02-15T13:01:19;-5.88;67.12
65369;HTU21D;51970;53.484;49.488;2023-02-15T13:06:20;-5.90;68.23
65369;HTU21D;51970;53.484;49.488;2023-02-15T13:08:49;-5.91;68.77
65369;HTU21D;51970;53.484;49.488;2023-02-15T13:11:26;-5.76;69.25
65369;HTU21D;51970;53.484;49.488;2023-02-15T13:14:01;-6.11;69.50
65369;HTU21D;51970;53.484;49.488;2023-02-15T13:16:37;-6.14;70.32
65369;HTU21D;51970;53.484;49.488;2023-02-15T13:19:10;-5.97;70.19
65369;HTU21D;51970;53.484;49.488;2023-02-15T13:21:40;-6.03;70.54
65369;HTU21D;51970;53.484;49.488;2023-02-15T13:26:46;-6.18;70.40
65369;HTU21D;51970;53.484;49.488;2023-02-15T13:31:52;-6.29;71.22
65369;HTU21D;51970;53.484;49.488;2023-02-15T13:34:27;-6.35;71.35
65369;HTU21D;51970;53.484;49.488;2023-02-15T13:39:51;-6.58;71.76
65369;HTU21D;51970;53.484;49.488;2023-02-15T13:50:35;-6.58;71.79
65369;HTU21D;51970;53.484;49.488;2023-02-15T13:55:40;-6.57;72.18
65369;HTU21D;51970;53.484;49.488;2023-02-15T14:04:04;-6.57;72.19
65369;HTU21D;51970;53.484;49.488;2023-02-15T14:06:49;-6.46;72.20
65369;HTU21D;51970;53.484;49.488;2023-02-15T14:18:04;-6.48;72.45
65369;HTU21D;51970;53.484;49.488;2023-02-15T14:32:09;-6.58;72.78
65369;HTU21D;51970;53.484;49.488;2023-02-15T14:34:45;-6.62;72.84
65369;HTU21D;51970;53.484;49.488;2023-02-15T14:37:14;-6.66;72.95
65369;HTU21D;51970;53.484;49.488;2023-02-15T14:43:29;-6.70;71.38
65369;HTU21D;51970;53.484;49.488;2023-02-15T14:48:46;-6.78;72.06
65369;HTU21D;51970;53.484;49.488;2023-02-15T14:59:26;-6.72;73.87
65369;HTU21D;51970;53.484;49.488;2023-02-15T15:04:43;-6.94;74.06
65369;HTU21D;51970;53.484;49.488;2023-02-15T15:07:25;-6.97;74.27
65369;HTU21D;51970;53.484;49.488;2023-02-15T15:10:00;-7.01;74.41
65369;HTU21D;51970;53.484;49.488;2023-02-15T15:15:01;-6.92;74.87
65369;HTU21D;51970;53.484;49.488;2023-02-15T15:20:19;-6.94;74.84
65369;HTU21D;51970;53.484;49.488;2023-02-15T15:25:46;-6.90;74.71
65369;HTU21D;51970;53.484;49.488;2023-02-15T15:50:52;-7.27;75.26
65369;HTU21D;51970;53.484;49.488;2023-02-15T15:53:22;-6.88;75.13
65369;HTU21D;51970;53.484;49.488;2023-02-15T15:55:52;-7.38;75.03
65369;HTU21D;51970;53.484;49.488;2023-02-15T15:58:22;-7.42;75.60
65369;HTU21D;51970;53.484;49.488;2023-02-15T16:01:06;-7.33;75.83
65369;HTU21D;51970;53.484;49.488;2023-02-15T16:03:34;-7.41;75.79
65369;HTU21D;51970;53.484;49.488;2023-02-15T16:06:01;-7.36;75.91
65369;HTU21D;51970;53.484;49.488;2023-02-15T16:08:33;-7.33;75.70
65369;HTU21D;51970;53.484;49.488;2023-02-15T16:11:23;-7.39;75.50
65369;HTU21D;51970;53.484;49.488;2023-02-15T16:13:48;-7.40;75.70
65369;HTU21D;51970;53.484;49.488;2023-02-15T16:16:23;-7.39;75.92
65369;HTU21D;51970;53.484;49.488;2023-02-15T16:18:51;-7.40;75.72
65369;HTU21D;51970;53.484;49.488;2023-02-15T16:21:30;-7.39;75.95
65369;HTU21D;51970;53.484;49.488;2023-02-15T16:27:37;-7.51;76.12
65369;HTU21D;51970;53.484;49.488;2023-02-15T16:33:16;-7.51;76.48
65369;HTU21D;51970;53.484;49.488;2023-02-15T16:35:59;-7.45;76.69
65369;HTU21D;51970;53.484;49.488;2023-02-15T16:41:31;-7.52;76.09
65369;HTU21D;51970;53.484;49.488;2023-02-15T16:44:07;-7.26;76.45
65369;HTU21D;51970;53.484;49.488;2023-02-15T16:46:49;-7.51;76.23
65369;HTU21D;51970;53.484;49.488;2023-02-15T16:49:24;-7.52;76.49
65369;HTU21D;51970;53.484;49.488;2023-02-15T16:52:03;-7.59;76.61
65369;HTU21D;51970;53.484;49.488;2023-02-15T16:54:34;-7.66;76.63
65369;HTU21D;51970;53.484;49.488;2023-02-15T16:57:01;-7.70;76.69
65369;HTU21D;51970;53.484;49.488;2023-02-15T17:01:53;-7.75;76.58
65369;HTU21D;51970;53.484;49.488;2023-02-15T17:09:32;-7.79;76.87
65369;HTU21D;51970;53.484;49.488;2023-02-15T17:11:59;-7.76;76.96
65369;HTU21D;51970;53.484;49.488;2023-02-15T17:14:31;-7.39;76.66
65369;HTU21D;51970;53.484;49.488;2023-02-15T17:17:05;-6.16;76.45
65369;HTU21D;51970;53.484;49.488;2023-02-15T17:19:53;-7.86;76.65
65369;HTU21D;51970;53.484;49.488;2023-02-15T17:22:23;-7.89;76.64
65369;HTU21D;51970;53.484;49.488;2023-02-15T17:24:58;-7.86;76.82
65369;HTU21D;51970;53.484;49.488;2023-02-15T17:27:26;-7.62;76.94
65369;HTU21D;51970;53.484;49.488;2023-02-15T17:29:58;-7.96;77.12
65369;HTU21D;51970;53.484;49.488;2023-02-15T17:32:27;-7.86;76.86
65369;HTU21D;51970;53.484;49.488;2023-02-15T17:34:58;-7.94;76.76
65369;HTU21D;51970;53.484;49.488;2023-02-15T17:37:44;-7.99;77.05
65369;HTU21D;51970;53.484;49.488;2023-02-15T17:40:26;-8.05;77.43
65369;HTU21D;51970;53.484;49.488;2023-02-15T17:42:53;-8.03;77.48
65369;HTU21D;51970;53.484;49.488;2023-02-15T17:45:19;-8.00;77.34
65369;HTU21D;51970;53.484;49.488;2023-02-15T17:47:47;-7.01;77.60
65369;HTU21D;51970;53.484;49.488;2023-02-15T17:50:23;-8.07;77.88
65369;HTU21D;51970;53.484;49.488;2023-02-15T17:52:50;-7.95;78.00
65369;HTU21D;51970;53.484;49.488;2023-02-15T17:55:19;-7.97;77.72
65369;HTU21D;51970;53.484;49.488;2023-02-15T17:58:11;-8.00;77.71
65369;HTU21D;51970;53.484;49.488;2023-02-15T18:00:43;-7.97;77.75
65369;HTU21D;51970;53.484;49.488;2023-02-15T18:03:49;-8.01;77.72
65369;HTU21D;51970;53.484;49.488;2023-02-15T18:06:37;-7.93;77.70
65369;HTU21D;51970;53.484;49.488;2023-02-15T18:09:23;-6.28;77.45
65369;HTU21D;51970;53.484;49.488;2023-02-15T18:12:28;-7.95;77.76
65369;HTU21D;51970;53.484;49.488;2023-02-15T18:14:55;-8.01;77.89
65369;HTU21D;51970;53.484;49.488;2023-02-15T18:17:43;-7.98;77.76
65369;HTU21D;51970;53.484;49.488;2023-02-15T18:20:22;-8.01;77.93
65369;HTU21D;51970;53.484;49.488;2023-02-15T18:22:50;-8.01;78.20
65369;HTU21D;51970;53.484;49.488;2023-02-15T18:25:19;-7.87;77.84
65369;HTU21D;51970;53.484;49.488;2023-02-15T18:27:46;-7.89;77.41
65369;HTU21D;51970;53.484;49.488;2023-02-15T18:30:18;-5.91;77.58
65369;HTU21D;51970;53.484;49.488;2023-02-15T18:32:46;-7.85;77.05
65369;HTU21D;51970;53.484;49.488;2023-02-15T18:35:15;-7.96;77.26
65369;HTU21D;51970;53.484;49.488;2023-02-15T18:37:41;-8.03;77.58
65369;HTU21D;51970;53.484;49.488;2023-02-15T18:40:19;-8.00;77.68
65369;HTU21D;51970;53.484;49.488;2023-02-15T18:42:46;-8.10;77.71
65369;HTU21D;51970;53.484;49.488;2023-02-15T18:47:40;-8.15;77.99
65369;HTU21D;51970;53.484;49.488;2023-02-15T18:50:07;-8.15;78.18
65369;HTU21D;51970;53.484;49.488;2023-02-15T18:52:36;-8.01;78.07
65369;HTU21D;51970;53.484;49.488;2023-02-15T18:55:24;-8.15;77.44
65369;HTU21D;51970;53.484;49.488;2023-02-15T18:57:53;-8.22;77.67
65369;HTU21D;51970;53.484;49.488;2023-02-15T19:00:22;-8.24;77.86
65369;HTU21D;51970;53.484;49.488;2023-02-15T19:02:50;-8.21;77.85
65369;HTU21D;51970;53.484;49.488;2023-02-15T19:05:16;-8.23;77.73
65369;HTU21D;51970;53.484;49.488;2023-02-15T19:07:43;-8.22;78.12
65369;HTU21D;51970;53.484;49.488;2023-02-15T19:10:21;-8.15;78.31
65369;HTU21D;51970;53.484;49.488;2023-02-15T19:12:48;-8.13;78.14
65369;HTU21D;51970;53.484;49.488;2023-02-15T19:15:19;-7.70;77.87
65369;HTU21D;51970;53.484;49.488;2023-02-15T19:17:45;-8.05;77.53
65369;HTU21D;51970;53.484;49.488;2023-02-15T19:20:27;-8.07;77.63
65369;HTU21D;51970;53.484;49.488;2023-02-15T19:22:55;-7.94;77.94
65369;HTU21D;51970;53.484;49.488;2023-02-15T19:25:24;-8.05;78.08
65369;HTU21D;51970;53.484;49.488;2023-02-15T19:27:51;-8.04;78.40
65369;HTU21D;51970;53.484;49.488;2023-02-15T19:30:24;-7.97;78.35